Time;durP1;ratioP1;P1;durP2;ratioP2;P2;SDS_P1;SDS_P2;PMS_P1;PMS_P2;Temp;Humidity;BMP_temperature;BMP_pressure;BME280_temperature;BME280_humidity;BME280_pressure;Samples;Min_cycle;Max_cycle;Signal;HPM_P1;HPM_P2
2023/04/23 00:01:56;;;;;;;9.27;8.10;;;;;;;13.61;100.00;98352.66;5067128;28;20192;-79
2023/04/23 00:04:27;;;;;;;10.23;8.60;;;;;;;13.59;100.00;98354.59;5069457;28;20232;-79
2023/04/23 00:06:56;;;;;;;11.47;8.97;;;;;;;13.39;100.00;98360.84;5072851;28;20192;-79
2023/04/23 00:09:25;;;;;;;9.77;8.77;;;;;;;13.42;100.00;98355.28;5063709;28;20184;-79
2023/04/23 00:11:54;;;;;;;10.67;9.17;;;;;;;13.53;100.00;98357.00;5066294;28;20651;-79
2023/04/23 00:14:22;;;;;;;11.80;9.50;;;;;;;13.57;100.00;98361.88;5069634;28;20192;-79
2023/04/23 00:16:51;;;;;;;13.17;9.40;;;;;;;13.51;100.00;98356.25;5072641;28;20204;-79
2023/04/23 00:19:20;;;;;;;10.47;9.40;;;;;;;13.55;100.00;98352.38;5069774;28;20442;-79
2023/04/23 00:21:50;;;;;;;13.27;10.00;;;;;;;13.57;100.00;98353.06;5072661;28;20194;-79
2023/04/23 00:24:18;;;;;;;11.53;9.47;;;;;;;13.39;100.00;98350.22;5066879;28;20216;-79
2023/04/23 00:26:46;;;;;;;11.83;9.87;;;;;;;13.40;100.00;98347.41;5064642;28;20700;-79
2023/04/23 00:29:14;;;;;;;11.63;9.43;;;;;;;13.31;100.00;98353.53;5068539;28;20242;-79
2023/04/23 00:31:42;;;;;;;12.87;10.57;;;;;;;13.21;100.00;98347.34;5062526;28;20651;-79
2023/04/23 00:34:11;;;;;;;12.63;10.57;;;;;;;13.20;100.00;98347.50;5066104;28;20197;-79
2023/04/23 00:36:40;;;;;;;16.20;11.57;;;;;;;13.26;100.00;98345.13;5074618;28;20307;-79
2023/04/23 00:39:10;;;;;;;13.77;11.20;;;;;;;13.19;100.00;98357.28;5071239;28;20188;-79
2023/04/23 00:41:40;;;;;;;13.63;11.43;;;;;;;13.27;100.00;98351.31;5076189;28;20259;-79
2023/04/23 00:44:09;;;;;;;15.87;12.43;;;;;;;13.18;100.00;98348.44;5073516;28;20265;-79
2023/04/23 00:46:37;;;;;;;18.43;13.00;;;;;;;13.04;100.00;98351.47;5073337;28;20192;-79
2023/04/23 00:49:06;;;;;;;15.40;13.17;;;;;;;13.08;100.00;98355.53;5073308;28;20188;-79
2023/04/23 00:51:34;;;;;;;18.27;14.07;;;;;;;13.15;100.00;98356.69;5070336;28;20196;-79
2023/04/23 00:54:03;;;;;;;15.53;13.57;;;;;;;13.13;100.00;98349.84;5071616;28;20200;-79
2023/04/23 00:56:33;;;;;;;17.73;14.23;;;;;;;13.15;100.00;98356.69;5069046;28;20204;-79
2023/04/23 00:59:02;;;;;;;17.93;14.13;;;;;;;13.16;100.00;98346.91;5068999;28;20255;-79
2023/04/23 01:01:32;;;;;;;17.40;14.60;;;;;;;13.15;100.00;98351.38;5071358;28;20212;-79
2023/04/23 01:04:00;;;;;;;16.90;13.27;;;;;;;13.07;100.00;98353.00;5075572;28;20251;-79
2023/04/23 01:06:30;;;;;;;18.33;13.97;;;;;;;13.16;100.00;98352.22;5075693;28;20280;-79
2023/04/23 01:08:58;;;;;;;17.40;13.50;;;;;;;13.17;100.00;98349.41;5068940;28;20246;-79
2023/04/23 01:11:27;;;;;;;18.70;14.27;;;;;;;13.22;100.00;98354.38;5066421;28;20204;-79
2023/04/23 01:13:58;;;;;;;18.40;14.67;;;;;;;13.02;100.00;98350.75;5070326;28;20200;-79
2023/04/23 01:16:26;;;;;;;15.60;13.47;;;;;;;13.09;100.00;98353.72;5071220;28;20208;-79
2023/04/23 01:18:55;;;;;;;16.03;13.57;;;;;;;12.99;100.00;98352.84;5072683;28;20185;-79
2023/04/23 01:21:24;;;;;;;16.53;14.30;;;;;;;12.86;100.00;98350.41;5075955;28;20192;-80
2023/04/23 01:23:57;;;;;;;17.40;14.27;;;;;;;12.80;100.00;98358.91;5068793;28;20207;-79
2023/04/23 01:26:26;;;;;;;20.00;15.73;;;;;;;12.87;100.00;98357.41;5065369;28;20683;-79
2023/04/23 01:28:54;;;;;;;17.83;15.13;;;;;;;13.03;100.00;98368.41;5068121;28;20655;-79
2023/04/23 01:31:23;;;;;;;19.90;16.30;;;;;;;13.02;100.00;98360.53;5072385;28;20189;-79
2023/04/23 01:33:54;;;;;;;19.53;14.97;;;;;;;12.95;100.00;98357.59;5075238;28;20192;-79
2023/04/23 01:36:23;;;;;;;15.97;14.37;;;;;;;12.84;100.00;98363.84;5065420;28;20219;-79
2023/04/23 01:38:52;;;;;;;18.23;15.30;;;;;;;12.85;100.00;98375.31;5074173;28;20420;-79
2023/04/23 01:41:22;;;;;;;18.53;15.87;;;;;;;12.84;100.00;98381.59;5072208;28;20188;-80
2023/04/23 01:43:50;;;;;;;18.97;16.23;;;;;;;12.75;100.00;98380.56;5071247;28;20363;-79
2023/04/23 01:46:22;;;;;;;18.90;15.77;;;;;;;12.82;100.00;98384.34;5066149;28;20231;-79
2023/04/23 01:48:51;;;;;;;16.97;14.53;;;;;;;12.78;100.00;98382.94;5075089;28;20204;-79
2023/04/23 01:51:19;;;;;;;17.97;14.30;;;;;;;12.61;100.00;98383.53;5064666;28;20250;-79
2023/04/23 01:53:47;;;;;;;18.33;14.60;;;;;;;12.49;100.00;98390.72;5066813;28;20258;-80
2023/04/23 01:56:16;;;;;;;16.10;14.40;;;;;;;12.51;100.00;98395.91;5056293;28;20192;-80
2023/04/23 01:58:46;;;;;;;18.90;14.60;;;;;;;12.58;100.00;98402.41;5065711;28;20330;-79
2023/04/23 02:01:14;;;;;;;17.47;13.77;;;;;;;12.49;100.00;98395.22;5066672;28;20204;-80
2023/04/23 02:03:43;;;;;;;17.17;14.60;;;;;;;12.41;100.00;98401.16;5074431;28;20243;-79
2023/04/23 02:06:13;;;;;;;17.60;15.00;;;;;;;12.42;100.00;98399.34;5065486;28;20217;-79
2023/04/23 02:08:41;;;;;;;14.83;12.90;;;;;;;12.38;100.00;98392.63;4988592;28;20250;-79
2023/04/23 02:11:09;;;;;;;16.87;11.83;;;;;;;12.36;100.00;98392.75;4992910;28;20202;-79
2023/04/23 02:13:39;;;;;;;15.47;12.73;;;;;;;12.36;100.00;98392.75;4987898;28;20246;-79
2023/04/23 02:16:09;;;;;;;14.73;12.30;;;;;;;12.44;100.00;98398.22;4992962;28;20279;-79
2023/04/23 02:18:38;;;;;;;17.10;12.73;;;;;;;12.37;100.00;98393.59;4974333;28;20187;-79
2023/04/23 02:21:06;;;;;;;14.43;10.67;;;;;;;12.29;100.00;98399.53;4985197;28;20238;-79
2023/04/23 02:23:34;;;;;;;13.37;11.47;;;;;;;12.32;100.00;98407.22;4989575;28;20206;-79
2023/04/23 02:26:03;;;;;;;14.27;11.40;;;;;;;12.29;100.00;98395.06;5003844;28;20705;-80
2023/04/23 02:28:31;;;;;;;13.60;11.47;;;;;;;12.27;100.00;98402.31;5071120;28;20250;-79
2023/04/23 02:30:59;;;;;;;12.00;10.80;;;;;;;12.18;100.00;98403.06;5070828;28;20262;-79
2023/04/23 02:33:30;;;;;;;10.73;9.63;;;;;;;12.26;100.00;98400.63;5073975;28;20189;-79
2023/04/23 02:35:58;;;;;;;10.50;9.30;;;;;;;12.21;100.00;98408.13;5068290;28;20188;-80
2023/04/23 02:38:27;;;;;;;8.80;7.90;;;;;;;12.16;100.00;98398.84;5062637;28;20204;-79
2023/04/23 02:40:55;;;;;;;8.07;6.80;;;;;;;12.06;100.00;98405.88;5073767;28;20601;-79
2023/04/23 02:43:23;;;;;;;7.67;6.97;;;;;;;12.25;100.00;98398.09;5065740;28;20241;-79
2023/04/23 02:45:51;;;;;;;8.13;6.27;;;;;;;12.18;100.00;98396.94;5073870;28;20231;-79
2023/04/23 02:48:21;;;;;;;7.63;6.47;;;;;;;12.07;100.00;98395.16;5055344;28;20200;-79
2023/04/23 02:50:50;;;;;;;7.10;5.70;;;;;;;12.04;100.00;98398.88;5067883;28;20227;-79
2023/04/23 02:53:18;;;;;;;9.27;5.50;;;;;;;12.06;100.00;98404.06;5069585;28;20246;-79
2023/04/23 02:55:46;;;;;;;7.50;6.00;;;;;;;11.93;100.00;98409.53;5069572;28;20200;-79
2023/04/23 02:58:15;;;;;;;6.90;6.03;;;;;;;11.98;100.00;98407.38;5066379;28;20197;-79
2023/04/23 03:00:43;;;;;;;7.13;6.10;;;;;;;11.99;100.00;98403.75;5069726;28;20196;-79
2023/04/23 03:03:12;;;;;;;7.50;6.00;;;;;;;11.97;100.00;98396.88;5070439;28;20197;-79
2023/04/23 03:05:41;;;;;;;6.67;5.97;;;;;;;12.01;100.00;98401.81;5070519;28;20221;-79
2023/04/23 03:08:11;;;;;;;6.40;5.80;;;;;;;12.02;100.00;98408.78;5073368;28;20712;-79
2023/04/23 03:10:39;;;;;;;6.83;5.90;;;;;;;12.00;100.00;98405.44;5072260;28;20196;-80
2023/04/23 03:13:07;;;;;;;6.87;6.17;;;;;;;12.06;100.00;98401.41;5069031;28;20204;-80
2023/04/23 03:15:36;;;;;;;7.57;6.40;;;;;;;12.04;100.00;98388.28;5067694;28;20214;-79
2023/04/23 03:18:07;;;;;;;9.00;6.10;;;;;;;12.12;100.00;98392.13;5068575;28;20201;-79
2023/04/23 03:20:35;;;;;;;7.73;6.37;;;;;;;12.06;100.00;98395.25;5067683;28;20197;-79
2023/04/23 03:23:05;;;;;;;7.00;6.07;;;;;;;12.01;100.00;98396.50;5070270;28;20254;-79
2023/04/23 03:25:35;;;;;;;7.23;6.50;;;;;;;12.01;100.00;98407.09;5066572;28;20273;-79
2023/04/23 03:28:03;;;;;;;7.40;6.70;;;;;;;11.89;100.00;98402.81;5070310;28;20201;-79
2023/04/23 03:30:33;;;;;;;9.53;7.00;;;;;;;11.94;100.00;98405.06;5072957;28;20185;-80
2023/04/23 03:33:01;;;;;;;7.90;7.10;;;;;;;12.19;100.00;98407.41;5069861;28;20254;-80
2023/04/23 03:35:29;;;;;;;7.43;6.47;;;;;;;11.92;100.00;98407.88;5063923;28;20219;-80
2023/04/23 03:37:59;;;;;;;7.33;6.50;;;;;;;12.00;100.00;98418.69;5067537;28;20204;-80
2023/04/23 03:40:29;;;;;;;9.87;6.87;;;;;;;12.28;100.00;98411.13;5067509;28;20219;-79
2023/04/23 03:43:02;;;;;;;7.77;6.80;;;;;;;12.32;100.00;98401.91;5066966;28;20196;-80
2023/04/23 03:45:31;;;;;;;8.43;7.00;;;;;;;12.46;100.00;98390.16;5065839;28;20230;-80
2023/04/23 03:47:59;;;;;;;7.83;7.00;;;;;;;12.41;100.00;98395.84;5065766;28;20199;-80
2023/04/23 03:50:28;;;;;;;8.43;7.23;;;;;;;12.49;100.00;98395.22;5068793;28;20691;-79
2023/04/23 03:52:56;;;;;;;8.13;6.53;;;;;;;12.47;100.00;98398.00;5072784;28;20200;-80
2023/04/23 03:55:24;;;;;;;7.70;6.23;;;;;;;12.65;100.00;98400.91;5063356;28;20204;-80
2023/04/23 03:57:52;;;;;;;7.83;6.77;;;;;;;12.54;100.00;98395.66;5072758;28;20192;-79
2023/04/23 04:00:22;;;;;;;7.37;6.63;;;;;;;12.64;100.00;98403.69;5066074;28;20250;-79
2023/04/23 04:02:51;;;;;;;7.63;6.83;;;;;;;12.67;100.00;98396.31;5070185;28;20188;-79
2023/04/23 04:05:19;;;;;;;8.47;7.00;;;;;;;12.70;100.00;98395.19;5069982;28;20238;-80
2023/04/23 04:07:47;;;;;;;7.43;6.73;;;;;;;12.60;100.00;98395.97;5067052;28;20750;-80
2023/04/23 04:10:15;;;;;;;8.50;6.93;;;;;;;12.61;100.00;98392.34;5066794;28;20249;-79
2023/04/23 04:12:46;;;;;;;8.13;7.30;;;;;;;12.54;100.00;98400.94;5072867;28;20226;-80
2023/04/23 04:15:16;;;;;;;8.40;7.50;;;;;;;12.64;100.00;98401.88;5071776;28;20188;-79
2023/04/23 04:17:45;;;;;;;9.10;7.83;;;;;;;12.70;100.00;98400.50;5073969;28;20192;-79
2023/04/23 04:20:14;;;;;;;10.57;7.43;;;;;;;12.63;100.00;98405.50;5073604;28;20227;-79
2023/04/23 04:22:42;;;;;;;10.50;8.37;;;;;;;12.64;100.00;98403.69;5076097;28;20273;-79
2023/04/23 04:25:11;;;;;;;9.07;8.07;;;;;;;12.65;100.00;98406.22;5067489;28;20184;-79
2023/04/23 04:27:40;;;;;;;10.67;8.93;;;;;;;12.60;100.00;98408.41;5068342;28;20216;-80
2023/04/23 04:30:09;;;;;;;10.93;9.70;;;;;;;12.50;100.00;98411.00;5068930;28;20203;-80
2023/04/23 04:32:39;;;;;;;11.93;9.80;;;;;;;12.69;100.00;98418.28;5070776;28;20242;-80
2023/04/23 04:35:11;;;;;;;10.40;9.33;;;;;;;12.66;100.00;98413.22;5072685;28;20201;-79
2023/04/23 04:37:40;;;;;;;11.33;9.93;;;;;;;12.55;100.00;98411.47;5073303;28;20196;-79
2023/04/23 04:40:10;;;;;;;12.80;10.73;;;;;;;12.51;100.00;98415.34;5071144;28;20656;-79
2023/04/23 04:42:39;;;;;;;14.90;12.67;;;;;;;12.53;100.00;98416.06;5071755;28;20204;-79
2023/04/23 04:45:09;;;;;;;16.20;13.07;;;;;;;12.59;100.00;98422.69;5072676;28;20204;-80
2023/04/23 04:47:37;;;;;;;18.17;13.87;;;;;;;12.48;100.00;98433.38;5075762;28;20216;-79
2023/04/23 04:50:09;;;;;;;15.77;14.17;;;;;;;12.49;100.00;98429.72;5068771;28;20210;-80
2023/04/23 04:52:37;;;;;;;13.57;12.27;;;;;;;12.30;100.00;98430.41;5022435;28;20204;-79
2023/04/23 04:55:06;;;;;;;16.03;13.60;;;;;;;12.32;100.00;98442.59;5074709;28;20200;-80
2023/04/23 04:57:35;;;;;;;16.23;14.53;;;;;;;11.96;100.00;98441.13;5075977;28;20204;-80
2023/04/23 05:00:21;;;;;;;18.90;14.33;;;;;;;11.88;100.00;98438.28;5071251;28;20268;-80
2023/04/23 05:02:50;;;;;;;17.63;15.73;;;;;;;11.73;100.00;98450.09;5075799;28;20192;-80
2023/04/23 05:05:20;;;;;;;18.27;16.23;;;;;;;11.95;100.00;98447.41;5073013;28;20266;-79
2023/04/23 05:07:48;;;;;;;18.30;16.30;;;;;;;12.10;100.00;98442.69;5071484;28;20281;-79
2023/04/23 05:10:16;;;;;;;21.53;17.40;;;;;;;12.17;100.00;98448.34;5068989;28;20200;-79
2023/04/23 05:12:44;;;;;;;19.73;15.87;;;;;;;12.19;100.00;98449.06;5075441;28;20227;-80
2023/04/23 05:15:14;;;;;;;21.63;16.97;;;;;;;12.24;100.00;98454.81;5065866;28;20200;-79
2023/04/23 05:17:42;;;;;;;20.80;15.50;;;;;;;12.36;100.00;98455.63;5075551;28;20193;-79
2023/04/23 05:20:11;;;;;;;20.37;16.00;;;;;;;12.53;100.00;98450.59;5075502;28;20264;-80
2023/04/23 05:22:42;;;;;;;18.10;16.13;;;;;;;12.52;100.00;98451.56;5070788;28;20197;-79
2023/04/23 05:25:11;;;;;;;17.90;15.97;;;;;;;12.49;100.00;98448.31;5066147;28;20199;-79
2023/04/23 05:27:40;;;;;;;21.17;17.17;;;;;;;12.43;100.00;98451.47;5070764;28;20230;-79
2023/04/23 05:30:10;;;;;;;22.60;18.30;;;;;;;12.50;100.00;98457.97;5070856;28;20276;-79
2023/04/23 05:32:40;;;;;;;20.07;17.20;;;;;;;12.48;100.00;98462.59;5075525;28;20197;-79
2023/04/23 05:35:09;;;;;;;18.33;15.80;;;;;;;12.70;100.00;98461.63;5068535;28;20224;-79
2023/04/23 05:37:38;;;;;;;17.97;16.07;;;;;;;12.73;100.00;98448.06;5072164;28;20215;-80
2023/04/23 05:40:12;;;;;;;19.90;16.97;;;;;;;12.79;100.00;98445.75;5068445;28;20196;-79
2023/04/23 05:42:40;;;;;;;17.73;15.83;;;;;;;12.86;100.00;98446.09;5066994;28;20196;-79
2023/04/23 05:45:09;;;;;;;18.53;16.00;;;;;;;12.87;100.00;98445.94;5069680;28;20185;-79
2023/04/23 05:47:38;;;;;;;17.63;15.23;;;;;;;13.10;100.00;98446.63;5065947;28;20212;-79
2023/04/23 05:50:07;;;;;;;17.00;14.97;;;;;;;13.10;100.00;98445.78;5072013;28;20291;-79
2023/04/23 05:52:36;;;;;;;16.97;15.17;;;;;;;13.03;100.00;98440.19;5067829;28;20279;-79
2023/04/23 05:55:05;;;;;;;18.63;15.37;;;;;;;13.09;100.00;98436.13;5073880;28;20189;-80
2023/04/23 05:57:36;;;;;;;16.70;14.90;;;;;;;13.22;100.00;98441.25;5040059;28;20203;-80
2023/04/23 06:00:05;;;;;;;19.40;16.43;;;;;;;13.00;100.00;98436.91;5066653;28;20205;-80
2023/04/23 06:02:33;;;;;;;19.63;16.10;;;;;;;13.01;100.00;98443.91;5070958;28;20699;-80
2023/04/23 06:05:02;;;;;;;18.33;15.43;;;;;;;13.10;100.00;98446.63;5071593;28;20269;-80
2023/04/23 06:07:30;;;;;;;21.20;16.93;;;;;;;13.26;100.00;98446.19;5069486;28;20219;-79
2023/04/23 06:09:58;;;;;;;19.70;16.50;;;;;;;13.26;100.00;98440.88;5070849;28;20219;-80
2023/04/23 06:12:27;;;;;;;16.77;14.97;;;;;;;13.19;100.00;98439.72;5074802;28;20192;-79
2023/04/23 06:14:56;;;;;;;21.67;16.07;;;;;;;13.26;100.00;98443.53;5065501;28;20197;-80
2023/04/23 06:17:24;;;;;;;21.90;16.17;;;;;;;13.29;100.00;98439.75;5074374;28;20203;-80
2023/04/23 06:19:52;;;;;;;20.43;16.90;;;;;;;13.17;100.00;98439.81;5069108;28;20246;-80
2023/04/23 06:22:21;;;;;;;17.70;15.30;;;;;;;13.17;100.00;98444.31;5066468;28;20196;-80
2023/04/23 06:24:49;;;;;;;18.97;15.83;;;;;;;12.98;100.00;98439.72;5073205;28;20196;-79
2023/04/23 06:27:18;;;;;;;18.47;15.37;;;;;;;13.07;100.00;98441.59;5065301;28;20220;-79
2023/04/23 06:29:46;;;;;;;19.93;16.50;;;;;;;13.07;100.00;98443.41;5068779;28;20667;-80
2023/04/23 06:32:16;;;;;;;18.53;15.67;;;;;;;13.26;100.00;98446.19;5069923;28;20705;-80
2023/04/23 06:34:47;;;;;;;20.97;17.67;;;;;;;13.30;100.00;98439.63;5073322;28;20243;-80
2023/04/23 06:37:29;;;;;;;19.70;17.27;;;;;;;13.13;100.00;98437.56;5067758;28;20232;-80
2023/04/23 06:39:58;;;;;;;21.87;17.00;;;;;;;13.29;100.00;98434.44;5068639;28;20204;-80
2023/04/23 06:42:27;;;;;;;20.27;16.07;;;;;;;13.34;100.00;98425.09;5073656;28;20336;-79
2023/04/23 06:44:55;;;;;;;22.33;17.27;;;;;;;13.34;100.00;98425.09;5073887;28;20204;-80
2023/04/23 06:47:25;;;;;;;20.67;16.83;;;;;;;13.26;100.00;98421.44;5073765;28;20224;-80
2023/04/23 06:49:55;;;;;;;17.57;15.67;;;;;;;13.21;100.00;98423.63;5020229;28;20199;-80
2023/04/23 06:52:23;;;;;;;18.20;16.20;;;;;;;13.43;100.00;98415.47;5068812;28;20242;-80
2023/04/23 06:54:51;;;;;;;17.37;15.57;;;;;;;13.45;100.00;98416.19;5072147;28;20201;-79
2023/04/23 06:57:20;;;;;;;16.43;14.37;;;;;;;13.27;100.00;98413.31;5069647;28;20196;-80
2023/04/23 06:59:50;;;;;;;17.67;14.47;;;;;;;13.43;100.00;98421.66;5068021;28;20283;-80
2023/04/23 07:02:18;;;;;;;18.23;14.53;;;;;;;13.45;100.00;98424.16;5065790;28;20225;-79
2023/04/23 07:04:48;;;;;;;16.03;14.33;;;;;;;13.63;100.00;98406.59;5073458;28;20224;-79
2023/04/23 07:07:16;;;;;;;17.20;14.83;;;;;;;13.64;100.00;98418.06;5067818;28;20200;-79
2023/04/23 07:09:44;;;;;;;15.97;12.97;;;;;;;13.51;100.00;98410.34;5072585;28;20238;-80
2023/04/23 07:12:12;;;;;;;14.20;12.70;;;;;;;13.53;100.00;98410.19;5068987;28;20196;-79
2023/04/23 07:14:40;;;;;;;14.17;12.30;;;;;;;13.50;100.00;98411.28;5073408;28;20211;-79
2023/04/23 07:17:11;;;;;;;14.10;12.67;;;;;;;13.49;100.00;98412.25;5067244;28;20196;-79
2023/04/23 07:19:39;;;;;;;13.93;12.53;;;;;;;13.64;100.00;98412.75;5070770;28;20197;-79
2023/04/23 07:22:11;;;;;;;15.80;12.97;;;;;;;13.57;100.00;98409.78;5069540;28;20200;-79
2023/04/23 07:24:40;;;;;;;13.37;12.00;;;;;;;13.68;100.00;98406.16;5067634;28;20199;-79
2023/04/23 07:27:09;;;;;;;13.83;12.43;;;;;;;13.69;100.00;98402.53;5073219;28;20212;-79
2023/04/23 07:29:37;;;;;;;12.97;11.57;;;;;;;13.94;100.00;98407.34;5068892;28;20216;-79
2023/04/23 07:32:05;;;;;;;12.80;11.50;;;;;;;14.29;100.00;98413.97;5073132;28;20204;-80
2023/04/23 07:34:35;;;;;;;14.07;12.43;;;;;;;14.35;100.00;98408.06;5073215;28;20201;-79
2023/04/23 07:37:05;;;;;;;12.63;10.83;;;;;;;14.43;100.00;98404.72;5068752;28;20280;-79
2023/04/23 07:39:34;;;;;;;12.07;10.43;;;;;;;14.39;100.00;98387.34;5064270;28;20192;-80
2023/04/23 07:42:03;;;;;;;12.30;9.57;;;;;;;14.30;100.00;98376.53;5073122;28;20251;-79
2023/04/23 07:44:31;;;;;;;10.30;9.30;;;;;;;14.25;100.00;98362.78;5069264;28;20189;-79
2023/04/23 07:46:59;;;;;;;12.13;8.37;;;;;;;14.36;100.00;98358.28;5064956;28;20200;-79
2023/04/23 07:49:28;;;;;;;10.60;8.93;;;;;;;14.66;100.00;98367.94;5065755;28;20218;-79
2023/04/23 07:51:56;;;;;;;8.33;7.47;;;;;;;14.59;100.00;98362.38;5070144;28;20258;-79
2023/04/23 07:54:24;;;;;;;10.83;8.20;;;;;;;14.37;100.00;98360.81;5067981;28;20223;-79
2023/04/23 07:56:54;;;;;;;8.27;7.30;;;;;;;14.14;100.00;98351.44;5063972;28;20200;-79
2023/04/23 07:59:22;;;;;;;9.27;7.70;;;;;;;14.40;100.00;98339.22;5070561;28;20242;-79
2023/04/23 08:01:51;;;;;;;7.97;7.27;;;;;;;14.68;100.00;98348.19;5071380;28;20192;-80
2023/04/23 08:04:19;;;;;;;9.07;7.20;;;;;;;14.73;100.00;98342.41;5072663;28;20771;-80
2023/04/23 08:06:48;;;;;;;9.73;7.00;;;;;;;15.02;100.00;98329.81;5065119;28;20608;-79
2023/04/23 08:09:17;;;;;;;8.40;7.50;;;;;;;15.08;100.00;98323.91;5063130;28;20212;-79
2023/04/23 08:11:46;;;;;;;7.17;6.47;;;;;;;15.51;100.00;98322.41;5063010;28;20297;-79
2023/04/23 08:14:17;;;;;;;7.10;6.07;;;;;;;15.51;100.00;98321.56;5067288;28;20196;-79
2023/04/23 08:16:46;;;;;;;7.30;5.90;;;;;;;15.55;100.00;98310.47;5069883;28;20200;-79
2023/04/23 08:19:14;;;;;;;7.60;6.20;;;;;;;15.52;100.00;98318.75;5034914;28;20234;-79
2023/04/23 08:21:42;;;;;;;7.47;6.13;;;;;;;15.87;100.00;98315.31;5073389;28;20302;-79
2023/04/23 08:24:10;;;;;;;7.17;5.90;;;;;;;15.88;100.00;98311.66;5074063;28;20195;-80
2023/04/23 08:26:39;;;;;;;6.23;5.60;;;;;;;15.80;100.00;98313.41;5069431;28;20192;-80
2023/04/23 08:29:07;;;;;;;6.97;6.27;;;;;;;15.63;100.00;98309.72;5051722;28;20761;-79
2023/04/23 08:31:40;;;;;;;7.07;6.33;;;;;;;15.71;100.00;98302.63;5071046;28;20201;-79
2023/04/23 08:34:08;;;;;;;6.23;5.63;;;;;;;15.98;100.00;98298.22;5073032;28;20271;-79
2023/04/23 08:36:37;;;;;;;5.93;5.33;;;;;;;16.17;100.00;98294.53;5067371;28;20200;-80
2023/04/23 08:39:05;;;;;;;5.67;5.07;;;;;;;16.04;100.00;98292.28;5068794;28;20189;-79
2023/04/23 08:41:39;;;;;;;6.73;5.47;;;;;;;16.15;100.00;98286.69;5073315;28;20597;-80
2023/04/23 08:44:16;;;;;;;5.77;5.23;;;;;;;16.47;100.00;98293.25;5070954;28;20208;-80
2023/04/23 08:46:49;;;;;;;7.13;5.30;;;;;;;16.40;100.00;98301.06;5064435;28;20200;-79
2023/04/23 08:49:19;;;;;;;7.33;5.10;;;;;;;16.24;100.00;98292.94;5065442;28;20220;-79
2023/04/23 08:51:50;;;;;;;6.77;5.63;;;;;;;16.51;100.00;98308.00;5069922;28;20219;-80
2023/04/23 08:54:25;;;;;;;6.83;5.63;;;;;;;16.88;100.00;98289.00;5071706;28;20212;-79
2023/04/23 08:56:57;;;;;;;5.77;5.17;;;;;;;16.98;100.00;98297.75;5065285;28;20496;-79
2023/04/23 08:59:26;;;;;;;7.57;5.10;;;;;;;16.73;100.00;98283.44;5068510;28;20200;-80
2023/04/23 09:01:56;;;;;;;8.37;5.67;;;;;;;16.95;100.00;98292.75;5065917;28;20200;-79
2023/04/23 09:04:25;;;;;;;6.40;5.80;;;;;;;16.88;100.00;98281.81;5070149;28;20236;-80
2023/04/23 09:06:56;;;;;;;6.00;5.20;;;;;;;16.92;100.00;98290.41;5073514;28;20195;-80
2023/04/23 09:09:27;;;;;;;7.03;6.13;;;;;;;16.50;100.00;98283.09;5069074;28;20216;-80
2023/04/23 09:11:56;;;;;;;7.50;6.20;;;;;;;16.36;100.00;98281.00;5075799;28;20204;-79
2023/04/23 09:14:25;;;;;;;6.40;5.77;;;;;;;16.60;100.00;98273.16;5073140;28;20193;-80
2023/04/23 09:16:55;;;;;;;6.73;6.03;;;;;;;16.49;100.00;98264.53;5070360;28;20204;-79
2023/04/23 09:19:27;;;;;;;6.97;6.00;;;;;;;16.14;100.00;98265.47;5068659;28;20192;-79
2023/04/23 09:21:55;;;;;;;8.93;6.60;;;;;;;15.89;100.00;98269.75;5075819;28;20275;-79
2023/04/23 09:24:25;;;;;;;7.07;6.40;;;;;;;15.53;100.00;98261.72;5066414;28;20204;-79
2023/04/23 09:26:53;;;;;;;5.60;5.10;;;;;;;15.79;100.00;98266.34;5072576;28;20192;-80
2023/04/23 09:29:23;;;;;;;6.87;5.87;;;;;;;15.80;100.00;98279.53;5069691;28;20219;-80
2023/04/23 09:31:54;;;;;;;6.80;5.23;;;;;;;15.71;100.00;98264.41;5071571;28;20204;-79
2023/04/23 09:34:25;;;;;;;7.70;5.83;;;;;;;15.48;100.00;98265.84;5072708;28;20196;-79
2023/04/23 09:36:53;;;;;;;9.37;6.70;;;;;;;15.41;100.00;98269.09;5072865;28;20305;-79
2023/04/23 09:39:23;;;;;;;8.53;7.70;;;;;;;15.26;100.00;98281.28;5074062;28;20195;-79
2023/04/23 09:41:52;;;;;;;8.70;7.33;;;;;;;15.37;100.00;98285.56;5072215;28;20197;-79
2023/04/23 09:44:22;;;;;;;8.20;7.13;;;;;;;15.29;100.00;98283.66;5069912;28;20196;-79
2023/04/23 09:46:50;;;;;;;8.23;6.90;;;;;;;15.26;100.00;98275.13;5070496;28;20721;-80
2023/04/23 09:49:19;;;;;;;7.23;6.33;;;;;;;15.10;100.00;98271.25;5076112;28;20228;-80
2023/04/23 09:51:50;;;;;;;7.87;6.77;;;;;;;15.00;100.00;98270.47;5068709;28;20192;-79
2023/04/23 09:54:21;;;;;;;7.90;7.03;;;;;;;15.06;100.00;98277.88;5063788;28;20192;-80
2023/04/23 09:56:51;;;;;;;7.67;6.67;;;;;;;15.18;100.00;98260.69;5069800;28;20230;-80
2023/04/23 09:59:20;;;;;;;7.93;7.13;;;;;;;15.13;100.00;98268.28;5067343;28;20196;-80
2023/04/23 10:02:08;;;;;;;7.30;6.60;;;;;;;15.26;100.00;98264.44;5074524;28;20196;-80
2023/04/23 10:04:38;;;;;;;8.83;6.87;;;;;;;15.59;100.00;98252.25;5071511;28;20219;-79
2023/04/23 10:07:12;;;;;;;7.53;6.20;;;;;;;16.07;100.00;98254.56;5074691;28;20211;-80
2023/04/23 10:09:47;;;;;;;7.20;6.40;;;;;;;16.52;100.00;98246.34;5068812;28;20299;-80
2023/04/23 10:12:16;;;;;;;6.90;6.17;;;;;;;17.22;100.00;98235.50;5074810;28;20196;-79
2023/04/23 10:15:07;;;;;;;7.93;5.50;;;;;;;17.39;100.00;98233.69;5074740;28;20256;-80
2023/04/23 10:17:36;;;;;;;6.63;4.80;;;;;;;17.41;100.00;98229.84;5070690;28;20647;-80
2023/04/23 10:20:05;;;;;;;6.60;5.20;;;;;;;17.24;100.00;98228.13;5070136;28;20647;-80
2023/04/23 10:22:38;;;;;;;5.83;4.63;;;;;;;17.07;100.00;98234.44;5072093;28;20203;-79
2023/04/23 10:25:11;;;;;;;4.57;4.17;;;;;;;16.83;100.00;98233.34;5070812;28;20185;-79
2023/04/23 10:27:41;;;;;;;4.77;3.60;;;;;;;17.08;100.00;98231.63;5071626;28;20254;-79
2023/04/23 10:30:21;;;;;;;5.60;3.80;;;;;;;16.95;100.00;98227.69;5074988;28;20216;-79
2023/04/23 10:32:50;;;;;;;4.60;3.60;;;;;;;16.77;100.00;98233.13;5068045;28;20200;-80
2023/04/23 10:35:18;;;;;;;3.83;3.47;;;;;;;16.93;100.00;98233.22;5074274;28;20192;-79
2023/04/23 10:37:49;;;;;;;5.53;3.20;;;;;;;17.41;100.00;98218.31;5074832;28;20192;-79
2023/04/23 10:40:22;;;;;;;3.80;3.40;;;;;;;17.67;100.00;98219.03;5064414;28;20193;-80
2023/04/23 10:42:51;;;;;;;4.40;2.87;;;;;;;18.09;100.00;98226.06;5074500;28;20211;-80
2023/04/23 10:45:21;;;;;;;3.37;2.87;;;;;;;17.90;100.00;98215.69;5069207;28;20188;-80
2023/04/23 10:47:54;;;;;;;4.57;2.90;;;;;;;17.43;100.00;98213.63;5071965;28;20246;-79
2023/04/23 10:50:24;;;;;;;4.87;2.70;;;;;;;17.51;100.00;98210.97;5073762;28;20216;-79
2023/04/23 10:52:55;;;;;;;4.53;3.40;;;;;;;17.57;100.00;98210.31;5062929;28;20196;-80
2023/04/23 10:55:26;;;;;;;3.63;3.33;;;;;;;16.76;100.00;98197.53;5072806;28;20418;-79
2023/04/23 10:57:59;;;;;;;4.00;3.60;;;;;;;16.79;100.00;98196.38;5074539;28;20674;-79
2023/04/23 11:00:42;;;;;;;6.33;3.77;;;;;;;17.15;100.00;98192.47;5070650;28;20219;-79
2023/04/23 11:03:31;;;;;;;4.73;3.10;;;;;;;17.40;100.00;98213.97;5067793;28;20203;-79
2023/04/23 11:06:02;;;;;;;4.40;3.63;;;;;;;17.36;100.00;98202.72;5070784;28;20199;-79
2023/04/23 11:08:35;;;;;;;5.07;3.97;;;;;;;17.56;100.00;98192.53;5069989;28;20196;-79
2023/04/23 11:11:08;;;;;;;5.70;3.63;;;;;;;17.46;100.00;98194.53;5066200;28;20254;-79
2023/04/23 11:13:36;;;;;;;4.70;4.20;;;;;;;17.29;100.00;98185.66;5070891;28;20200;-79
2023/04/23 11:16:18;;;;;;;4.60;3.87;;;;;;;16.94;100.00;98189.41;5070868;28;20238;-79
2023/04/23 11:19:02;;;;;;;4.73;3.80;;;;;;;17.33;100.00;98181.66;5022637;28;20200;-79
2023/04/23 11:21:59;;;;;;;4.33;3.40;;;;;;;17.18;100.00;98188.66;5071185;28;20197;-79
2023/04/23 11:24:31;;;;;;;4.53;3.47;;;;;;;16.81;100.00;98192.56;5072501;28;20196;-79
2023/04/23 11:27:00;;;;;;;4.23;3.20;;;;;;;17.02;100.00;98186.78;5073278;28;20219;-79
2023/04/23 11:29:28;;;;;;;5.77;3.57;;;;;;;17.22;100.00;98178.47;5063934;28;20212;-79